createdAt,value
2016-12-14T10:15:57.491Z,88
2016-12-14T10:16:38.120Z,84
2016-12-14T10:17:18.835Z,84
2016-12-14T10:17:59.471Z,88
2016-12-14T10:18:40.097Z,84
2016-12-14T10:19:20.793Z,76
2016-12-14T10:20:01.422Z,88
2016-12-14T10:20:42.154Z,92
2016-12-14T10:21:22.793Z,92
2016-12-14T10:22:03.424Z,92
2016-12-14T10:22:44.046Z,92
2016-12-14T10:23:24.688Z,96
2016-12-14T10:24:05.344Z,96
2016-12-14T10:24:46.064Z,92
2016-12-14T10:25:26.725Z,96
2016-12-14T10:26:07.358Z,92
2016-12-14T10:26:48.060Z,96
2016-12-14T10:27:28.671Z,96
2016-12-14T10:28:09.423Z,104
2016-12-14T10:28:50.094Z,120
2016-12-14T10:29:30.704Z,120
2016-12-14T10:30:11.328Z,116
2016-12-14T10:30:52.010Z,120
2016-12-14T10:31:32.637Z,124
2016-12-14T10:32:13.291Z,128
2016-12-14T10:32:53.927Z,128
2016-12-14T10:33:34.546Z,128
2016-12-14T10:34:15.182Z,132
2016-12-14T10:34:55.808Z,132
2016-12-14T10:43:24.298Z,148
2016-12-14T10:44:05.053Z,80
2016-12-14T10:44:45.727Z,152
2016-12-14T10:45:26.354Z,148
2016-12-14T10:46:07.213Z,148
2016-12-14T10:46:47.843Z,144
2016-12-14T10:47:28.479Z,144
2016-12-14T10:48:09.166Z,128
2016-12-14T10:48:49.797Z,120
2016-12-14T10:49:30.428Z,128
2016-12-14T10:50:11.063Z,124
2016-12-14T10:50:51.696Z,120
2016-12-14T10:51:32.371Z,116
2016-12-14T10:52:13.144Z,144
2016-12-14T10:52:53.818Z,140
2016-12-14T10:53:34.454Z,140
2016-12-14T10:54:15.081Z,140
2016-12-14T10:54:55.711Z,136
2016-12-14T10:55:36.331Z,140
2016-12-14T10:56:16.964Z,128
2016-12-14T10:56:57.613Z,128
2016-12-14T10:57:38.235Z,124
2016-12-14T10:58:18.858Z,104
2016-12-14T10:58:59.491Z,132
2016-12-14T10:59:40.127Z,128
2016-12-14T11:00:20.743Z,132
2016-12-14T11:01:01.372Z,128
2016-12-14T11:01:42.064Z,128
2016-12-14T11:02:22.684Z,128
2016-12-14T11:03:03.310Z,128
2016-12-14T11:03:44.628Z,124
2016-12-14T11:04:25.254Z,124
2016-12-14T11:05:06.034Z,124
2016-12-14T11:05:46.681Z,128
2016-12-14T11:06:27.311Z,128
2016-12-14T11:07:07.943Z,124
2016-12-14T11:07:48.699Z,120
2016-12-14T11:08:29.353Z,124
2016-12-14T11:09:10.766Z,124
2016-12-14T11:09:51.402Z,120
2016-12-14T11:10:32.029Z,124
2016-12-14T11:11:12.729Z,132
2016-12-14T11:11:53.415Z,136
2016-12-14T11:12:34.056Z,136
2016-12-14T11:13:14.764Z,136
2016-12-14T11:13:55.392Z,140
2016-12-14T11:14:36.031Z,144
2016-12-14T11:15:16.701Z,148
2016-12-14T11:15:57.332Z,140
2016-12-14T11:16:37.989Z,132
2016-12-14T11:32:01.323Z,68
2016-12-14T11:32:41.974Z,68
2016-12-14T11:33:22.590Z,68
2016-12-14T11:34:03.254Z,120
2016-12-14T11:34:43.883Z,120
2016-12-14T11:35:24.519Z,120
2016-12-14T11:36:05.149Z,120
2016-12-14T11:36:45.805Z,116
2016-12-14T11:37:26.523Z,112
2016-12-14T11:38:07.146Z,116
2016-12-14T11:38:47.789Z,116
2016-12-14T11:39:28.441Z,132
2016-12-14T11:40:09.106Z,128
2016-12-14T11:40:49.740Z,128
2016-12-14T11:41:30.471Z,144
2016-12-14T11:42:11.146Z,128
2016-12-14T11:42:51.799Z,124
2016-12-14T11:43:32.499Z,124
2016-12-14T11:44:13.132Z,132
2016-12-14T11:44:53.825Z,128
2016-12-14T11:45:34.456Z,128
2016-12-14T11:46:15.097Z,132
2016-12-14T11:46:55.731Z,132
2016-12-14T11:47:36.446Z,136
2016-12-14T11:48:17.080Z,136
2016-12-14T11:48:57.704Z,140
2016-12-14T11:49:38.330Z,156
2016-12-14T11:50:18.978Z,156
2016-12-14T11:50:59.675Z,80
2016-12-14T11:51:40.393Z,60
2016-12-14T11:52:21.044Z,64
2016-12-14T11:53:01.665Z,76
2016-12-14T11:53:42.287Z,88
2016-12-14T11:54:22.985Z,100
2016-12-14T11:55:03.631Z,88
2016-12-14T11:55:44.268Z,32
2016-12-14T11:56:24.994Z,32
2016-12-14T11:57:05.622Z,64
2016-12-14T11:57:46.270Z,96
2016-12-14T11:58:26.899Z,132
2016-12-14T11:59:07.551Z,136
2016-12-14T11:59:48.179Z,128
2016-12-14T12:00:28.932Z,108
2016-12-14T12:01:09.575Z,108
2016-12-14T12:01:50.201Z,108
2016-12-14T12:02:30.823Z,108
2016-12-14T12:03:11.457Z,116
2016-12-14T12:03:52.088Z,116
2016-12-14T12:04:32.731Z,124
2016-12-14T12:05:13.352Z,128
2016-12-14T12:05:54.009Z,120
2016-12-14T12:06:34.691Z,140
2016-12-14T12:07:15.330Z,120
2016-12-14T12:07:55.961Z,116
2016-12-14T12:08:36.590Z,116
2016-12-14T12:09:17.273Z,116
2016-12-14T12:09:57.904Z,140
2016-12-14T12:10:38.517Z,128
2016-12-14T12:11:19.161Z,136
2016-12-14T12:11:59.785Z,140
2016-12-14T12:12:40.455Z,136
2016-12-14T12:13:21.083Z,136
2016-12-14T12:14:01.731Z,132
2016-12-14T12:14:42.349Z,116
2016-12-14T12:15:22.980Z,104
2016-12-14T12:16:03.614Z,80
2016-12-14T12:16:44.249Z,76
2016-12-14T12:17:24.879Z,96
2016-12-14T12:18:05.632Z,100
2016-12-14T12:18:46.251Z,100
2016-12-14T12:19:26.879Z,72
2016-12-14T12:20:07.516Z,124
2016-12-14T12:20:48.150Z,128
2016-12-14T12:21:28.786Z,104
2016-12-14T12:22:09.406Z,120
2016-12-14T12:22:50.048Z,116
2016-12-14T12:23:30.684Z,120
2016-12-14T12:24:11.322Z,120
2016-12-14T12:24:51.949Z,108
2016-12-14T12:25:32.596Z,136
2016-12-14T12:26:13.248Z,120
2016-12-14T12:26:53.888Z,96
2016-12-14T12:27:34.528Z,92
2016-12-14T12:28:15.150Z,140
2016-12-14T12:28:55.798Z,140
2016-12-14T12:29:36.442Z,84
2016-12-14T12:30:17.074Z,140
2016-12-14T12:30:57.738Z,140
2016-12-14T12:31:38.442Z,132
2016-12-14T12:32:19.131Z,136
2016-12-14T12:32:59.776Z,80
2016-12-14T12:33:40.441Z,76
2016-12-14T12:34:21.096Z,76
2016-12-14T12:35:01.742Z,72
2016-12-14T14:47:12.930Z,60
2016-12-14T14:47:53.554Z,60
2016-12-14T14:48:34.280Z,60
2016-12-14T14:49:15.530Z,56
2016-12-14T14:49:56.220Z,56
2016-12-14T14:50:36.947Z,44
2016-12-14T14:51:17.614Z,48
2016-12-14T14:51:58.240Z,44
2016-12-14T14:52:38.973Z,48
2016-12-14T14:53:19.684Z,64
2016-12-14T15:01:27.587Z,56
2016-12-14T15:03:20.554Z,68
2016-12-14T15:05:58.896Z,68
2016-12-14T15:43:05.420Z,52
2016-12-14T15:55:56.120Z,32
2016-12-14T16:00:15.975Z,48
2016-12-14T16:00:56.596Z,48
2016-12-14T16:01:37.219Z,60
2016-12-14T16:02:17.933Z,64
2016-12-14T16:02:58.563Z,68
2016-12-14T16:03:39.230Z,52
2016-12-14T16:04:19.857Z,52
2016-12-14T16:05:00.567Z,48
2016-12-14T16:05:41.147Z,76
2016-12-14T16:06:21.916Z,76
2016-12-14T16:07:02.552Z,80
2016-12-14T16:07:43.187Z,76
2016-12-14T16:08:23.812Z,76
2016-12-14T16:09:04.429Z,56
2016-12-14T16:09:45.055Z,56
2016-12-14T16:10:25.678Z,52
2016-12-14T16:11:06.310Z,52
2016-12-14T16:11:46.940Z,56
2016-12-14T16:12:27.601Z,56
2016-12-14T16:13:08.256Z,52
2016-12-14T16:13:48.881Z,44
2016-12-14T16:14:29.527Z,44
2016-12-14T16:15:10.156Z,44
2016-12-14T16:15:50.784Z,44
2016-12-14T16:16:31.430Z,44
2016-12-14T16:17:12.061Z,40
2016-12-14T16:17:52.692Z,44
2016-12-14T16:18:33.350Z,44
2016-12-14T16:19:13.975Z,44
2016-12-14T16:19:54.616Z,44
2016-12-14T16:20:35.272Z,48
2016-12-14T16:21:15.914Z,44
2016-12-14T16:21:56.547Z,44
2016-12-14T16:22:37.167Z,40
2016-12-14T16:23:17.863Z,44
2016-12-14T16:23:58.491Z,40
2016-12-14T16:24:39.199Z,44
2016-12-14T16:25:19.825Z,44
2016-12-14T16:26:00.452Z,40
2016-12-14T16:26:41.087Z,40
2016-12-14T16:27:21.805Z,40
2016-12-14T16:28:02.430Z,40
2016-12-14T16:28:43.135Z,56
2016-12-14T16:29:23.767Z,40
2016-12-14T16:30:04.405Z,40
2016-12-14T16:30:45.104Z,40
2016-12-14T16:31:25.742Z,60
2016-12-14T16:32:06.361Z,60
2016-12-14T16:32:46.993Z,60
2016-12-14T16:33:27.631Z,60
2016-12-14T16:34:08.263Z,60
2016-12-14T16:34:48.983Z,60
2016-12-14T16:35:29.739Z,64
2016-12-14T16:36:10.366Z,60
2016-12-14T16:36:51.003Z,56
2016-12-14T16:37:31.670Z,40
2016-12-14T16:38:12.299Z,40
2016-12-14T16:38:52.937Z,40
2016-12-14T16:39:33.641Z,40
2016-12-14T16:40:14.269Z,40
2016-12-14T16:40:54.898Z,32
2016-12-14T16:41:35.536Z,36
2016-12-14T16:42:16.166Z,36
2016-12-14T16:42:56.798Z,36
2016-12-14T16:43:37.430Z,36
2016-12-14T16:44:18.074Z,36
2016-12-14T16:44:58.700Z,32
2016-12-14T16:45:39.338Z,36
2016-12-14T16:46:19.981Z,36
2016-12-14T16:47:00.618Z,36
2016-12-14T16:47:41.251Z,32
2016-12-14T16:48:21.878Z,32
2016-12-14T16:49:02.509Z,32
2016-12-14T16:49:43.128Z,32
2016-12-14T17:12:34.844Z,24
2016-12-14T17:13:15.492Z,28
2016-12-14T17:13:56.169Z,24
2016-12-14T17:14:36.808Z,28
2016-12-14T17:15:17.440Z,24
2016-12-14T17:15:58.150Z,24
2016-12-14T17:16:38.810Z,24
2016-12-14T17:17:19.434Z,24
2016-12-14T17:18:00.071Z,24
2016-12-14T17:18:40.696Z,24
2016-12-14T17:19:21.340Z,28
2016-12-14T17:20:02.028Z,28
2016-12-14T17:20:42.695Z,28
2016-12-14T17:21:23.320Z,28
2016-12-14T17:22:03.982Z,28
2016-12-14T17:22:44.667Z,28
2016-12-14T17:23:25.294Z,24
2016-12-14T17:24:06.041Z,28
2016-12-14T17:24:46.722Z,28
2016-12-14T17:25:27.420Z,28
2016-12-14T17:26:08.062Z,24
2016-12-14T17:26:48.707Z,28
2016-12-14T17:27:29.353Z,24
2016-12-14T17:28:09.999Z,32
2016-12-14T17:28:50.685Z,24
2016-12-14T17:29:31.394Z,24
2016-12-14T17:30:12.059Z,24
2016-12-14T17:30:52.696Z,24
2016-12-14T17:31:33.352Z,24
2016-12-14T17:32:14.104Z,24
2016-12-14T17:32:54.733Z,28
2016-12-14T17:33:35.387Z,24
2016-12-14T17:34:16.029Z,24
2016-12-14T17:34:56.659Z,28
2016-12-14T17:35:37.314Z,36
2016-12-14T17:36:17.941Z,24
2016-12-14T17:36:59.244Z,28
2016-12-14T17:37:39.871Z,24
2016-12-14T17:38:20.493Z,28
2016-12-14T17:39:01.123Z,28
2016-12-14T17:39:41.753Z,28
2016-12-14T17:40:22.392Z,24
2016-12-14T17:41:03.009Z,28
2016-12-14T17:41:43.644Z,28
2016-12-14T17:42:24.303Z,28
2016-12-14T17:43:04.932Z,36
2016-12-14T17:43:45.565Z,36
2016-12-14T17:44:26.196Z,44
2016-12-14T17:45:06.906Z,44
2016-12-14T17:45:47.539Z,48
2016-12-14T17:46:28.166Z,40
2016-12-14T17:47:08.810Z,44
2016-12-14T17:47:49.533Z,44
2016-12-14T17:48:30.181Z,48
2016-12-14T17:49:10.807Z,28
2016-12-14T17:49:51.437Z,28
2016-12-14T17:50:32.068Z,28
2016-12-14T17:51:12.809Z,32
2016-12-14T17:51:53.506Z,28
2016-12-14T17:52:34.129Z,32
2016-12-14T17:53:14.880Z,32
2016-12-14T17:53:55.535Z,44
2016-12-14T17:54:36.250Z,28
2016-12-14T17:55:16.902Z,28
2016-12-14T17:55:57.599Z,28
2016-12-14T17:56:38.295Z,24
2016-12-14T17:57:18.934Z,24
2016-12-14T17:57:59.570Z,24
2016-12-14T17:58:40.192Z,20
2016-12-14T17:59:20.895Z,28
2016-12-14T18:00:01.542Z,24
2016-12-14T18:00:42.196Z,28
2016-12-14T18:01:22.823Z,28
2016-12-14T18:02:03.472Z,28
2016-12-14T18:02:44.112Z,28
2016-12-14T18:03:24.744Z,28
2016-12-14T18:04:05.377Z,28
2016-12-14T18:04:46.011Z,28
2016-12-14T18:05:26.640Z,28
2016-12-14T18:06:07.277Z,28
2016-12-14T18:06:47.906Z,28
2016-12-14T18:07:28.540Z,28
2016-12-14T18:08:09.180Z,28
2016-12-14T18:08:49.826Z,48
2016-12-14T18:09:30.465Z,48
2016-12-14T18:10:11.095Z,48
